Time;durP1;ratioP1;P1;durP2;ratioP2;P2;SDS_P1;SDS_P2;PMS_P1;PMS_P2;Temp;Humidity;BMP_temperature;BMP_pressure;BME280_temperature;BME280_humidity;BME280_pressure;Samples;Min_cycle;Max_cycle;Signal;HPM_P1;HPM_P2
2022/09/25 00:01:14;;;;;;;4.45;2.13;;;17.40;97.50;;;;;;5016989;28;20051;-72
2022/09/25 00:03:42;;;;;;;4.00;2.22;;;17.40;97.60;;;;;;5033383;28;20449;-73
2022/09/25 00:06:20;;;;;;;4.35;2.20;;;17.30;97.70;;;;;;5033601;28;20488;-74
2022/09/25 00:08:49;;;;;;;4.30;2.47;;;17.30;97.80;;;;;;5033885;28;20072;-74
2022/09/25 00:11:19;;;;;;;4.30;1.92;;;17.30;97.90;;;;;;5051412;28;20189;-72
2022/09/25 00:13:47;;;;;;;4.88;2.58;;;17.30;98.10;;;;;;5016068;28;20080;-72
2022/09/25 00:16:18;;;;;;;7.20;2.50;;;17.20;98.30;;;;;;5044780;28;20151;-76
2022/09/25 00:21:33;;;;;;;2.97;2.40;;;17.20;98.60;;;;;;5037081;28;20102;-72
2022/09/25 00:24:03;;;;;;;3.35;2.47;;;17.20;98.60;;;;;;5054161;28;20452;-73
2022/09/25 00:26:34;;;;;;;4.90;2.50;;;17.20;98.70;;;;;;5036841;28;20090;-74
2022/09/25 00:29:04;;;;;;;3.47;2.03;;;17.20;98.60;;;;;;5052910;28;20045;-73
2022/09/25 00:31:31;;;;;;;4.65;2.58;;;17.10;98.60;;;;;;5071455;28;20098;-73
2022/09/25 00:34:02;;;;;;;5.90;2.92;;;17.10;98.80;;;;;;5033156;28;20513;-73
2022/09/25 00:36:31;;;;;;;3.78;2.67;;;17.10;98.90;;;;;;5031647;28;20143;-73
2022/09/25 00:38:59;;;;;;;3.30;2.35;;;17.00;99.10;;;;;;5049684;28;20448;-72
2022/09/25 00:41:31;;;;;;;4.65;3.67;;;17.00;99.30;;;;;;5016166;28;20352;-73
2022/09/25 00:44:01;;;;;;;4.07;2.75;;;17.00;99.30;;;;;;5033502;28;20052;-73
2022/09/25 00:46:39;;;;;;;3.72;2.63;;;17.00;99.60;;;;;;5033080;28;20055;-73
2022/09/25 00:49:21;;;;;;;4.90;2.67;;;17.10;99.60;;;;;;5032855;28;20056;-73
2022/09/25 00:52:13;;;;;;;4.18;2.20;;;17.10;99.80;;;;;;5032781;28;20083;-72
2022/09/25 00:54:52;;;;;;;3.63;2.50;;;17.10;99.90;;;;;;5032610;28;20152;-73
2022/09/25 00:57:25;;;;;;;3.97;2.60;;;17.20;99.90;;;;;;5016671;28;20049;-72
2022/09/25 01:00:01;;;;;;;5.25;2.97;;;17.20;99.90;;;;;;5032781;28;20067;-73
2022/09/25 01:02:33;;;;;;;4.85;2.58;;;17.20;99.90;;;;;;5049319;28;20139;-73
2022/09/25 01:05:06;;;;;;;3.28;2.75;;;17.30;99.90;;;;;;5032733;28;20049;-72
2022/09/25 01:07:37;;;;;;;3.78;2.08;;;17.40;99.90;;;;;;5049593;28;20045;-73
2022/09/25 01:10:07;;;;;;;4.70;2.78;;;17.40;99.90;;;;;;5016848;28;20083;-72
2022/09/25 01:12:38;;;;;;;4.18;1.83;;;17.40;99.90;;;;;;5032963;28;20115;-81
2022/09/25 01:15:11;;;;;;;2.95;2.08;;;17.50;99.90;;;;;;5000531;28;20471;-72
2022/09/25 01:18:09;;;;;;;3.67;2.38;;;17.50;99.90;;;;;;5032650;28;20140;-75
2022/09/25 01:20:48;;;;;;;5.00;2.03;;;17.60;99.90;;;;;;5016242;28;20486;-72
2022/09/25 01:23:32;;;;;;;2.90;2.20;;;17.60;99.90;;;;;;5032731;28;20471;-72
2022/09/25 01:26:09;;;;;;;3.38;2.17;;;17.60;99.90;;;;;;5016291;28;20045;-73
2022/09/25 01:29:05;;;;;;;3.60;2.35;;;17.70;99.90;;;;;;5048417;28;20116;-73
2022/09/25 01:31:47;;;;;;;3.20;2.20;;;17.70;99.90;;;;;;5019986;28;20057;-73
2022/09/25 01:34:21;;;;;;;6.53;1.83;;;17.70;99.90;;;;;;5029824;28;20041;-75
2022/09/25 01:37:02;;;;;;;3.60;2.53;;;17.70;99.90;;;;;;5032215;28;20122;-72
2022/09/25 01:39:37;;;;;;;3.85;1.95;;;17.70;99.90;;;;;;5000014;28;20660;-75
2022/09/25 01:42:20;;;;;;;2.55;1.65;;;17.70;99.90;;;;;;5000655;28;20111;-73
2022/09/25 01:45:03;;;;;;;3.33;2.30;;;17.70;99.90;;;;;;5000260;28;20053;-72
2022/09/25 01:47:38;;;;;;;3.50;2.30;;;17.70;99.90;;;;;;4999850;28;20378;-72
2022/09/25 01:50:13;;;;;;;4.05;1.58;;;17.80;99.90;;;;;;5033114;28;20562;-73
2022/09/25 01:52:48;;;;;;;2.70;2.00;;;17.70;99.90;;;;;;5036472;28;20517;-72
2022/09/25 01:56:01;;;;;;;3.67;2.03;;;17.80;99.90;;;;;;5004320;28;20057;-74
2022/09/25 01:58:55;;;;;;;3.20;2.20;;;17.70;99.90;;;;;;4954206;29;20098;-72
2022/09/25 02:01:30;;;;;;;3.60;2.08;;;17.80;99.90;;;;;;5011419;28;20049;-73
2022/09/25 02:04:07;;;;;;;3.72;2.05;;;17.90;99.90;;;;;;5020149;28;20118;-72
2022/09/25 02:06:37;;;;;;;3.78;2.65;;;17.90;99.90;;;;;;5020419;28;20045;-85
2022/09/25 02:09:34;;;;;;;4.85;2.08;;;17.90;99.90;;;;;;5036623;28;20110;-74
2022/09/25 02:12:08;;;;;;;2.92;1.95;;;18.00;99.90;;;;;;5007950;28;20045;-74
2022/09/25 02:14:51;;;;;;;3.95;2.03;;;18.00;99.90;;;;;;5019257;28;20048;-74
2022/09/25 02:20:35;;;;;;;3.40;2.03;;;18.10;99.90;;;;;;5058263;28;20040;-73
2022/09/25 02:23:24;;;;;;;3.75;2.35;;;18.10;99.90;;;;;;5039337;28;20494;-74
2022/09/25 02:26:05;;;;;;;4.25;2.10;;;18.10;99.90;;;;;;5055925;28;20131;-73
2022/09/25 02:28:33;;;;;;;3.40;2.13;;;18.00;99.90;;;;;;5037890;28;20792;-74
2022/09/25 02:31:06;;;;;;;2.60;1.75;;;18.00;99.90;;;;;;5072781;28;20043;-73
2022/09/25 02:33:34;;;;;;;4.55;2.40;;;17.90;99.90;;;;;;5038964;28;20040;-78
2022/09/25 02:36:04;;;;;;;3.75;1.75;;;17.90;99.90;;;;;;5073465;28;20045;-73
2022/09/25 02:38:33;;;;;;;3.03;1.80;;;17.90;99.90;;;;;;5038657;28;20088;-75
2022/09/25 02:41:17;;;;;;;3.55;2.42;;;18.00;99.90;;;;;;5055483;28;20428;-73
2022/09/25 02:43:56;;;;;;;3.53;2.47;;;17.90;99.90;;;;;;5038627;28;20049;-73
2022/09/25 02:47:08;;;;;;;3.17;1.65;;;17.90;99.90;;;;;;5054958;28;20470;-73
2022/09/25 02:49:54;;;;;;;3.75;2.40;;;17.90;99.90;;;;;;5030635;28;20441;-73
2022/09/25 02:52:33;;;;;;;5.22;2.15;;;17.90;99.90;;;;;;5038702;28;20041;-73
2022/09/25 02:55:32;;;;;;;3.40;2.30;;;17.90;99.90;;;;;;5021324;28;20071;-73
2022/09/25 02:58:10;;;;;;;3.95;2.13;;;17.90;99.90;;;;;;5022382;28;20094;-73
2022/09/25 03:00:40;;;;;;;3.55;1.80;;;17.90;99.90;;;;;;5037741;28;20067;-75
2022/09/25 03:03:12;;;;;;;3.80;2.63;;;17.90;99.90;;;;;;5050286;28;20060;-73
2022/09/25 03:05:41;;;;;;;3.13;1.98;;;17.90;99.90;;;;;;5019044;28;20048;-73
2022/09/25 03:10:57;;;;;;;3.10;1.92;;;17.90;99.90;;;;;;5054709;28;20140;-75
2022/09/25 03:13:36;;;;;;;3.47;2.55;;;17.90;99.90;;;;;;5054565;28;20421;-73
2022/09/25 03:16:09;;;;;;;3.28;2.00;;;17.90;99.90;;;;;;5037988;28;20048;-74
2022/09/25 03:18:37;;;;;;;3.03;2.05;;;17.90;99.90;;;;;;5038252;28;20044;-73
2022/09/25 03:21:05;;;;;;;3.35;1.92;;;17.90;99.90;;;;;;5072211;28;20040;-74
2022/09/25 03:23:32;;;;;;;4.63;2.63;;;18.00;99.90;;;;;;5055326;28;20040;-74
2022/09/25 03:26:00;;;;;;;3.55;2.30;;;17.90;99.90;;;;;;5036410;28;20052;-73
2022/09/25 03:28:27;;;;;;;2.65;1.92;;;17.90;99.90;;;;;;5037499;28;20051;-73
2022/09/25 03:31:01;;;;;;;7.60;2.65;;;17.90;99.90;;;;;;5071580;28;20044;-73
2022/09/25 03:33:33;;;;;;;3.70;2.65;;;17.80;99.90;;;;;;5037500;28;20521;-73
2022/09/25 03:36:21;;;;;;;4.75;2.97;;;17.80;99.90;;;;;;5037913;28;20048;-73
2022/09/25 03:38:51;;;;;;;4.00;2.22;;;17.80;99.90;;;;;;5036793;28;20044;-73
2022/09/25 03:41:20;;;;;;;3.28;2.60;;;17.70;99.90;;;;;;5053401;28;20052;-73
2022/09/25 03:43:53;;;;;;;3.30;2.33;;;17.70;99.90;;;;;;5037225;28;20148;-73
2022/09/25 03:46:24;;;;;;;3.35;2.40;;;17.70;99.90;;;;;;5037592;28;20489;-73
2022/09/25 03:48:53;;;;;;;2.80;2.20;;;17.70;99.90;;;;;;5036740;28;20514;-74
2022/09/25 03:51:22;;;;;;;4.35;2.22;;;17.70;99.90;;;;;;5019164;28;20052;-73
2022/09/25 03:53:50;;;;;;;3.53;2.10;;;17.60;99.90;;;;;;5035084;28;20421;-73
2022/09/25 03:56:23;;;;;;;4.45;2.92;;;17.70;99.90;;;;;;5053287;28;20044;-73
2022/09/25 03:58:53;;;;;;;3.60;2.35;;;17.70;99.90;;;;;;5020488;28;20056;-73
2022/09/25 04:01:21;;;;;;;3.55;1.98;;;17.70;99.90;;;;;;5053088;28;20045;-74
2022/09/25 04:03:50;;;;;;;5.10;2.30;;;17.70;99.90;;;;;;5053770;28;20219;-73
2022/09/25 04:06:23;;;;;;;3.17;1.90;;;17.70;99.90;;;;;;5036957;28;20063;-73
2022/09/25 04:08:52;;;;;;;5.10;2.60;;;17.80;99.90;;;;;;5036688;28;20037;-73
2022/09/25 04:11:21;;;;;;;4.70;2.42;;;17.80;99.90;;;;;;5053050;28;20482;-73
2022/09/25 04:13:48;;;;;;;4.07;2.97;;;17.80;99.90;;;;;;5036335;28;20056;-73
2022/09/25 04:16:19;;;;;;;4.65;2.50;;;17.80;99.90;;;;;;5036670;28;20082;-79
2022/09/25 04:18:47;;;;;;;3.53;2.15;;;17.90;99.90;;;;;;5036312;28;20048;-76
2022/09/25 04:21:15;;;;;;;4.07;2.10;;;17.90;99.90;;;;;;5052764;28;20045;-78
2022/09/25 04:24:47;;;;;;;5.28;2.25;;;17.90;99.90;;;;;;5036114;28;20099;-73
2022/09/25 04:26:31;;;;;;;4.28;2.50;;;17.90;99.90;;;;;;5071736;28;20083;-73
2022/09/25 04:29:02;;;;;;;3.95;2.65;;;18.00;99.90;;;;;;5053429;28;20043;-73
2022/09/25 04:31:30;;;;;;;4.47;2.85;;;17.90;99.90;;;;;;5071105;28;20055;-73
2022/09/25 04:33:58;;;;;;;3.30;2.72;;;18.00;99.90;;;;;;5037216;28;20131;-73
2022/09/25 04:36:26;;;;;;;3.38;2.13;;;18.00;99.90;;;;;;5053570;28;20068;-73
2022/09/25 04:38:53;;;;;;;3.67;2.33;;;18.00;99.90;;;;;;5052714;28;20051;-73
2022/09/25 04:41:21;;;;;;;4.18;2.47;;;18.00;99.90;;;;;;5053028;28;20094;-73
2022/09/25 04:43:48;;;;;;;5.10;2.80;;;18.00;99.90;;;;;;5036439;28;20146;-76
2022/09/25 04:46:16;;;;;;;3.47;2.63;;;18.00;99.90;;;;;;5036786;28;20048;-73
2022/09/25 04:48:47;;;;;;;3.65;2.40;;;18.00;99.90;;;;;;5036796;28;20395;-73
2022/09/25 04:51:14;;;;;;;4.18;2.40;;;18.10;99.90;;;;;;5071206;28;20032;-73
2022/09/25 04:53:42;;;;;;;5.20;3.08;;;18.10;99.90;;;;;;5035911;28;20505;-74
2022/09/25 04:56:10;;;;;;;4.47;2.60;;;18.20;99.90;;;;;;5052514;28;20052;-82
2022/09/25 04:58:50;;;;;;;4.35;2.90;;;18.20;99.90;;;;;;5036132;28;20068;-72
2022/09/25 05:01:20;;;;;;;4.80;2.55;;;18.20;99.90;;;;;;5051174;28;20501;-75
2022/09/25 05:03:52;;;;;;;4.53;2.67;;;18.20;99.90;;;;;;5015192;28;20132;-73
2022/09/25 05:06:21;;;;;;;6.57;3.45;;;18.20;99.90;;;;;;5046296;28;20098;-73
2022/09/25 05:08:49;;;;;;;6.00;2.83;;;18.20;99.90;;;;;;5021814;28;20098;-73
2022/09/25 05:11:17;;;;;;;3.80;2.83;;;18.30;99.90;;;;;;5031009;28;20041;-74
2022/09/25 05:13:50;;;;;;;4.18;3.13;;;18.30;99.90;;;;;;5065723;28;20060;-74
2022/09/25 05:16:18;;;;;;;3.70;2.97;;;18.30;99.90;;;;;;5037944;28;20064;-80
2022/09/25 05:18:46;;;;;;;4.82;3.03;;;18.20;99.90;;;;;;5034047;28;20467;-79
2022/09/25 05:21:13;;;;;;;4.03;2.50;;;18.30;99.90;;;;;;5053395;28;20049;-73
2022/09/25 05:23:41;;;;;;;5.35;2.95;;;18.30;99.90;;;;;;5031659;28;20064;-73
2022/09/25 05:26:09;;;;;;;5.82;2.78;;;18.30;99.90;;;;;;5050938;28;20164;-72
2022/09/25 05:28:37;;;;;;;6.50;2.90;;;18.40;99.90;;;;;;5053098;28;20048;-72
2022/09/25 05:31:05;;;;;;;4.75;3.13;;;18.40;99.90;;;;;;5048004;28;20049;-73
2022/09/25 05:33:34;;;;;;;4.63;2.65;;;18.40;99.90;;;;;;5055215;28;20040;-73
2022/09/25 05:36:06;;;;;;;3.42;2.47;;;18.40;99.90;;;;;;5017857;28;20188;-74
2022/09/25 05:38:36;;;;;;;6.60;3.53;;;18.50;99.90;;;;;;5036955;28;20068;-73
2022/09/25 05:41:05;;;;;;;8.02;3.35;;;18.50;99.90;;;;;;5036313;28;20072;-72
2022/09/25 05:43:38;;;;;;;4.60;2.88;;;18.50;99.90;;;;;;5020635;28;20052;-72
2022/09/25 05:46:06;;;;;;;5.47;3.47;;;18.50;99.90;;;;;;5004253;28;20056;-73
2022/09/25 05:48:34;;;;;;;4.30;2.65;;;18.60;99.90;;;;;;5036553;28;20483;-73
2022/09/25 05:51:03;;;;;;;5.53;2.72;;;18.80;99.90;;;;;;5054397;28;20052;-72
2022/09/25 05:53:31;;;;;;;3.40;2.55;;;19.00;99.90;;;;;;5036283;28;20161;-73
2022/09/25 05:56:02;;;;;;;4.97;2.47;;;19.40;99.90;;;;;;5054436;28;20037;-72
2022/09/25 05:58:32;;;;;;;5.45;3.00;;;19.70;99.90;;;;;;5036625;28;20038;-72
2022/09/25 06:01:02;;;;;;;4.88;2.58;;;20.00;99.90;;;;;;5003825;28;20056;-73
2022/09/25 06:03:30;;;;;;;8.52;3.17;;;20.00;99.90;;;;;;5036127;28;20125;-73
2022/09/25 06:05:58;;;;;;;5.78;2.53;;;20.00;99.90;;;;;;5035689;28;20049;-73
2022/09/25 06:08:29;;;;;;;5.50;3.15;;;20.00;99.90;;;;;;5020071;28;20053;-73
2022/09/25 06:10:59;;;;;;;3.58;2.47;;;20.00;99.90;;;;;;5001392;28;20134;-72
2022/09/25 06:13:30;;;;;;;5.18;3.38;;;19.90;99.90;;;;;;5030298;28;20103;-75
2022/09/25 06:15:59;;;;;;;8.73;3.47;;;19.80;99.90;;;;;;5015066;28;20046;-72
2022/09/25 06:18:27;;;;;;;6.95;3.33;;;19.80;99.90;;;;;;5032083;28;20381;-73
2022/09/25 06:21:01;;;;;;;6.20;4.18;;;19.80;99.90;;;;;;5016020;28;20103;-72
2022/09/25 06:23:29;;;;;;;4.97;3.70;;;19.80;99.90;;;;;;5034134;28;20126;-72
2022/09/25 06:26:01;;;;;;;7.13;5.10;;;19.90;99.90;;;;;;5033495;28;20056;-72
2022/09/25 06:28:29;;;;;;;5.93;4.50;;;20.10;99.90;;;;;;5032304;28;20037;-72
2022/09/25 06:31:01;;;;;;;10.77;4.47;;;20.40;99.90;;;;;;5032773;28;20045;-72
2022/09/25 06:33:30;;;;;;;9.00;3.45;;;20.70;99.90;;;;;;5016265;28;20045;-73
2022/09/25 06:35:57;;;;;;;4.68;3.30;;;21.00;99.90;;;;;;5015816;28;20041;-72
2022/09/25 06:38:25;;;;;;;5.43;3.10;;;21.10;99.90;;;;;;5033578;28;20133;-72
2022/09/25 06:40:52;;;;;;;6.03;3.78;;;21.30;99.90;;;;;;5014781;28;20045;-73
2022/09/25 06:43:22;;;;;;;4.90;3.45;;;21.50;99.90;;;;;;5032120;28;20041;-73
2022/09/25 06:45:50;;;;;;;9.23;3.42;;;21.70;99.90;;;;;;5048846;28;20045;-73
2022/09/25 06:48:17;;;;;;;3.97;2.80;;;21.90;99.90;;;;;;5032221;28;20049;-73
2022/09/25 06:50:51;;;;;;;7.07;2.83;;;22.00;99.90;;;;;;5032389;28;20053;-72
2022/09/25 06:53:20;;;;;;;5.38;3.22;;;22.10;99.90;;;;;;5032349;28;20096;-72
2022/09/25 06:55:48;;;;;;;7.10;2.67;;;22.10;99.90;;;;;;5031919;28;20077;-72
2022/09/25 06:58:19;;;;;;;5.05;3.42;;;22.20;99.90;;;;;;5031969;28;20050;-72
2022/09/25 07:00:48;;;;;;;4.35;2.80;;;22.30;99.90;;;;;;5016059;28;20046;-73
2022/09/25 07:06:05;;;;;;;3.95;2.15;;;22.50;99.90;;;;;;5032191;28;20455;-74
2022/09/25 07:08:33;;;;;;;4.25;2.70;;;22.80;99.90;;;;;;5032873;28;20586;-73
2022/09/25 07:11:00;;;;;;;3.30;2.10;;;23.00;99.90;;;;;;4997910;28;20072;-73
2022/09/25 07:13:32;;;;;;;4.22;2.50;;;23.10;99.60;;;;;;5030356;28;20115;-73
2022/09/25 07:16:00;;;;;;;4.55;2.90;;;23.10;99.60;;;;;;5032745;28;20042;-72
2022/09/25 07:18:28;;;;;;;4.78;2.45;;;23.00;99.70;;;;;;5031727;28;20037;-73
2022/09/25 07:21:05;;;;;;;4.28;2.90;;;22.90;99.80;;;;;;5031352;28;20095;-73
2022/09/25 07:23:34;;;;;;;4.13;2.38;;;22.90;99.60;;;;;;5015408;28;20033;-72
2022/09/25 07:26:10;;;;;;;3.88;2.42;;;22.80;99.80;;;;;;5031620;28;20095;-73
2022/09/25 07:28:38;;;;;;;;;;;22.80;99.90;;;;;;5031347;28;20095;-73
2022/09/25 07:31:18;;;;;;;4.40;2.55;;;22.90;99.80;;;;;;5014853;28;19924;-81
2022/09/25 07:33:47;;;;;;;6.22;2.58;;;23.00;99.80;;;;;;4998880;28;20057;-73
2022/09/25 07:36:16;;;;;;;3.05;2.45;;;22.90;99.60;;;;;;4998904;28;20065;-76
2022/09/25 07:38:49;;;;;;;7.38;2.60;;;22.80;99.80;;;;;;5031158;28;20121;-73
2022/09/25 07:41:18;;;;;;;4.35;2.50;;;22.70;99.60;;;;;;4998664;28;20041;-73
2022/09/25 07:43:46;;;;;;;7.28;2.67;;;22.50;99.50;;;;;;5031127;28;20081;-73
2022/09/25 07:46:13;;;;;;;10.48;2.47;;;22.70;99.40;;;;;;5031149;28;20049;-73
2022/09/25 07:48:41;;;;;;;3.47;2.70;;;22.70;98.50;;;;;;5030355;28;20435;-73
2022/09/25 07:51:10;;;;;;;3.70;2.58;;;22.80;98.30;;;;;;5031267;28;20510;-73
2022/09/25 07:53:40;;;;;;;8.02;2.70;;;22.90;98.30;;;;;;5030858;28;20045;-73
2022/09/25 07:56:08;;;;;;;4.30;2.80;;;23.10;97.90;;;;;;5030592;28;20045;-74
2022/09/25 07:58:36;;;;;;;4.05;2.78;;;23.40;97.90;;;;;;5030414;28;20041;-75
2022/09/25 08:01:06;;;;;;;5.55;3.15;;;23.30;98.10;;;;;;5029795;28;20049;-76
2022/09/25 08:03:34;;;;;;;4.00;2.33;;;23.10;98.40;;;;;;5030116;28;20041;-72
2022/09/25 08:06:05;;;;;;;4.80;2.78;;;23.00;98.60;;;;;;5043475;28;20045;-74
2022/09/25 08:08:34;;;;;;;3.95;2.53;;;23.10;98.20;;;;;;5020514;28;20099;-74
2022/09/25 08:11:07;;;;;;;4.07;2.75;;;23.40;98.30;;;;;;5014593;28;20049;-77
2022/09/25 08:13:37;;;;;;;;;;;23.40;98.00;;;;;;5032763;28;20377;-72
2022/09/25 08:16:12;;;;;;;4.88;2.40;;;23.50;98.10;;;;;;5044333;28;20003;-72
2022/09/25 08:18:41;;;;;;;4.78;2.90;;;23.50;97.40;;;;;;5049610;28;20056;-72
2022/09/25 08:21:12;;;;;;;3.72;2.40;;;23.40;97.50;;;;;;5049044;28;20041;-72
2022/09/25 08:23:41;;;;;;;4.75;2.78;;;23.60;97.50;;;;;;5032736;28;20041;-73
2022/09/25 08:26:14;;;;;;;4.80;2.45;;;23.60;96.80;;;;;;5032564;28;20048;-74
2022/09/25 08:28:43;;;;;;;3.42;2.40;;;23.60;96.80;;;;;;5049698;28;20049;-73
2022/09/25 08:31:13;;;;;;;5.07;3.20;;;23.50;96.80;;;;;;5029697;28;20048;-73
2022/09/25 08:33:46;;;;;;;4.32;2.40;;;23.50;96.90;;;;;;5027267;28;20050;-72
2022/09/25 08:36:15;;;;;;;3.00;2.30;;;23.60;96.70;;;;;;5012874;28;20038;-74
2022/09/25 08:38:44;;;;;;;4.38;2.55;;;23.40;96.40;;;;;;5012535;28;20085;-73
2022/09/25 08:41:17;;;;;;;7.72;2.58;;;23.30;96.90;;;;;;5013562;28;20496;-74
2022/09/25 08:44:06;;;;;;;4.05;2.80;;;23.10;97.10;;;;;;5013842;28;20138;-76
2022/09/25 08:50:11;;;;;;;5.90;3.08;;;22.80;98.20;;;;;;5029757;28;20148;-73
2022/09/25 08:52:42;;;;;;;6.68;2.90;;;22.70;98.90;;;;;;5038175;28;20452;-72
2022/09/25 08:56:13;;;;;;;4.18;2.72;;;22.80;98.90;;;;;;5013317;28;20547;-73
2022/09/25 08:58:44;;;;;;;3.35;2.55;;;22.90;98.70;;;;;;5027484;28;20111;-73
2022/09/25 09:01:17;;;;;;;4.20;3.08;;;22.90;98.80;;;;;;5037010;28;20158;-73
2022/09/25 09:03:48;;;;;;;4.43;2.60;;;23.10;98.60;;;;;;5033184;28;20045;-73
2022/09/25 09:06:17;;;;;;;6.15;2.80;;;23.30;98.60;;;;;;5031985;28;20526;-72
2022/09/25 09:08:52;;;;;;;2.88;2.15;;;23.40;97.70;;;;;;5033195;28;20184;-73
2022/09/25 09:11:30;;;;;;;4.88;2.65;;;23.70;97.40;;;;;;5032228;28;20736;-82
2022/09/25 09:14:05;;;;;;;3.85;2.17;;;23.80;98.10;;;;;;5032335;28;20053;-73
2022/09/25 09:16:59;;;;;;;4.28;2.17;;;23.80;98.40;;;;;;5028285;28;20049;-73
2022/09/25 09:19:27;;;;;;;5.18;2.50;;;24.00;98.30;;;;;;5032641;28;20183;-73
2022/09/25 09:22:09;;;;;;;5.25;2.80;;;24.10;98.20;;;;;;5016358;28;20051;-73
2022/09/25 09:24:58;;;;;;;4.35;2.63;;;24.30;98.00;;;;;;5032307;28;20132;-73
2022/09/25 09:27:42;;;;;;;4.82;2.33;;;24.30;97.60;;;;;;5015998;28;20128;-73
2022/09/25 09:30:19;;;;;;;3.58;2.15;;;24.00;98.00;;;;;;5016151;28;20053;-72
2022/09/25 09:33:15;;;;;;;5.75;1.75;;;23.60;98.80;;;;;;5032255;28;20240;-73
2022/09/25 09:35:55;;;;;;;4.10;2.00;;;23.20;99.90;;;;;;5033400;28;20376;-72
2022/09/25 09:38:40;;;;;;;3.45;2.03;;;23.00;99.90;;;;;;5032083;28;20276;-72
2022/09/25 09:41:16;;;;;;;4.80;2.85;;;23.10;99.90;;;;;;5031605;28;20042;-74
2022/09/25 09:43:53;;;;;;;3.65;2.17;;;23.10;98.80;;;;;;5015988;28;20099;-72
2022/09/25 09:46:39;;;;;;;3.17;2.30;;;23.20;97.60;;;;;;5016048;28;20127;-73
2022/09/25 09:49:39;;;;;;;3.58;2.50;;;23.50;96.90;;;;;;5032212;28;20041;-73
2022/09/25 09:52:19;;;;;;;3.20;2.80;;;23.90;95.20;;;;;;5032278;28;20053;-75
2022/09/25 09:55:00;;;;;;;7.97;2.88;;;23.80;94.80;;;;;;5015393;28;20344;-77
2022/09/25 09:57:38;;;;;;;4.13;2.17;;;23.90;95.20;;;;;;5015858;28;20053;-75
2022/09/25 10:00:14;;;;;;;4.68;2.38;;;24.20;96.00;;;;;;5033625;28;20048;-73
2022/09/25 10:03:11;;;;;;;4.85;2.85;;;24.30;96.40;;;;;;5014623;28;20045;-73
2022/09/25 10:05:43;;;;;;;3.10;1.88;;;24.20;96.90;;;;;;5032144;28;20049;-73
2022/09/25 10:08:12;;;;;;;4.53;2.03;;;24.30;96.90;;;;;;5016507;28;20107;-73
2022/09/25 10:10:42;;;;;;;4.63;2.35;;;24.30;97.20;;;;;;5032707;28;20132;-72
2022/09/25 10:13:31;;;;;;;6.05;2.30;;;24.30;97.00;;;;;;5032006;28;20077;-72
2022/09/25 10:16:12;;;;;;;3.75;2.40;;;24.20;97.70;;;;;;5008571;28;20091;-75
2022/09/25 10:19:06;;;;;;;4.25;1.83;;;23.90;98.60;;;;;;5032073;28;20045;-72
2022/09/25 10:21:38;;;;;;;2.97;2.10;;;23.90;98.50;;;;;;5032448;28;20049;-72
2022/09/25 10:24:06;;;;;;;3.47;2.00;;;23.70;98.30;;;;;;5032509;28;20043;-72
2022/09/25 10:26:40;;;;;;;3.80;2.33;;;23.60;97.90;;;;;;5015883;28;20492;-72
2022/09/25 10:29:07;;;;;;;5.53;2.22;;;23.40;98.90;;;;;;5016331;28;20041;-72
2022/09/25 10:31:38;;;;;;;3.63;2.08;;;23.20;99.30;;;;;;5033032;28;20518;-72
2022/09/25 10:34:21;;;;;;;5.45;2.67;;;23.40;99.40;;;;;;5031480;28;20125;-72
2022/09/25 10:36:50;;;;;;;3.75;2.63;;;23.70;99.10;;;;;;5014321;28;20096;-74
2022/09/25 10:39:58;;;;;;;2.95;1.60;;;23.60;98.80;;;;;;4998139;28;20049;-72
2022/09/25 10:42:38;;;;;;;6.60;2.40;;;23.60;98.80;;;;;;4998460;28;20195;-73
2022/09/25 10:45:35;;;;;;;3.58;2.35;;;23.50;98.90;;;;;;5014221;28;20053;-76
2022/09/25 10:51:16;;;;;;;7.05;2.65;;;23.60;98.90;;;;;;5048207;28;20053;-76
2022/09/25 10:53:45;;;;;;;3.80;1.83;;;23.70;98.90;;;;;;5029380;28;20526;-73
2022/09/25 10:56:25;;;;;;;5.93;2.45;;;23.90;97.90;;;;;;5014124;28;20494;-73
2022/09/25 10:58:56;;;;;;;2.95;1.95;;;24.10;96.70;;;;;;5030308;28;20053;-73
2022/09/25 11:01:39;;;;;;;3.08;1.73;;;23.90;97.50;;;;;;5015148;28;20084;-72
2022/09/25 11:04:19;;;;;;;4.75;1.83;;;23.50;98.50;;;;;;4999319;28;20073;-72
2022/09/25 11:06:52;;;;;;;5.47;2.20;;;23.40;98.80;;;;;;5031696;28;20125;-72
2022/09/25 11:09:25;;;;;;;3.85;1.80;;;23.40;98.90;;;;;;5032378;28;20039;-72
2022/09/25 11:12:06;;;;;;;6.93;2.25;;;23.40;98.90;;;;;;5015178;28;20468;-72
2022/09/25 11:14:36;;;;;;;7.60;2.40;;;23.50;98.60;;;;;;5066551;28;20459;-73
2022/09/25 11:17:05;;;;;;;2.83;1.70;;;23.50;98.50;;;;;;5072089;28;20541;-73
2022/09/25 11:19:35;;;;;;;7.90;2.08;;;23.30;98.80;;;;;;5038455;28;20395;-72
2022/09/25 11:22:35;;;;;;;4.75;2.97;;;23.40;98.80;;;;;;5072578;28;20502;-72
2022/09/25 11:25:17;;;;;;;3.35;1.48;;;23.40;98.70;;;;;;5020857;28;20139;-73
2022/09/25 11:27:47;;;;;;;4.97;2.00;;;23.60;98.40;;;;;;5054851;28;20040;-74
2022/09/25 11:30:18;;;;;;;7.00;1.70;;;23.50;98.40;;;;;;5038280;28;20037;-73
2022/09/25 11:33:21;;;;;;;5.68;1.90;;;23.30;98.60;;;;;;5050492;28;20127;-73
2022/09/25 11:36:12;;;;;;;4.57;2.03;;;23.10;99.00;;;;;;5040710;28;20052;-72
2022/09/25 11:41:42;;;;;;;3.95;2.40;;;23.10;99.30;;;;;;5067216;28;20458;-76
2022/09/25 11:44:31;;;;;;;9.23;2.58;;;23.40;98.90;;;;;;5054635;28;20044;-72
2022/09/25 11:47:23;;;;;;;6.93;1.90;;;23.40;98.90;;;;;;5037438;28;20418;-72
2022/09/25 11:49:53;;;;;;;4.05;1.98;;;23.10;99.30;;;;;;5054665;28;20049;-72
2022/09/25 11:52:52;;;;;;;3.13;1.95;;;23.20;99.20;;;;;;5035092;28;20099;-72
2022/09/25 11:55:33;;;;;;;3.50;1.70;;;23.20;99.00;;;;;;5042992;28;20552;-73
2022/09/25 11:58:40;;;;;;;8.13;3.42;;;23.10;99.20;;;;;;5053742;28;20040;-73
2022/09/25 12:01:28;;;;;;;3.80;1.60;;;23.10;99.10;;;;;;5026033;28;20371;-73
2022/09/25 12:04:07;;;;;;;3.53;2.13;;;23.10;98.90;;;;;;5051609;28;20371;-72
2022/09/25 12:07:00;;;;;;;5.53;2.20;;;23.10;98.80;;;;;;5036342;28;20041;-87
2022/09/25 12:09:49;;;;;;;18.35;3.03;;;23.20;98.80;;;;;;5053477;28;20044;-72
2022/09/25 12:12:31;;;;;;;2.85;1.77;;;23.30;98.60;;;;;;5052853;28;20044;-72
2022/09/25 12:15:32;;;;;;;4.53;2.15;;;23.40;98.30;;;;;;5020428;28;20052;-73
2022/09/25 12:18:12;;;;;;;3.58;1.85;;;23.30;98.40;;;;;;5016260;28;20492;-73
2022/09/25 12:21:02;;;;;;;5.68;2.20;;;23.20;98.90;;;;;;5034366;28;20057;-73
2022/09/25 12:23:40;;;;;;;4.28;1.70;;;23.30;98.90;;;;;;5034676;28;20094;-73
2022/09/25 12:26:23;;;;;;;4.32;2.30;;;23.20;98.80;;;;;;5037125;28;20462;-73
2022/09/25 12:29:18;;;;;;;3.53;2.00;;;23.20;98.90;;;;;;5041219;28;20066;-74
2022/09/25 12:32:08;;;;;;;4.90;3.00;;;23.10;98.80;;;;;;5022052;28;20048;-76
2022/09/25 12:35:09;;;;;;;7.80;2.30;;;23.20;98.60;;;;;;5067403;28;20138;-74
2022/09/25 12:37:52;;;;;;;3.33;1.90;;;23.30;98.30;;;;;;5032473;28;20064;-73
2022/09/25 12:40:31;;;;;;;3.17;2.33;;;23.30;98.50;;;;;;5024390;28;20570;-72
2022/09/25 12:43:17;;;;;;;5.30;2.10;;;23.30;98.40;;;;;;5052550;28;20032;-73
2022/09/25 12:46:08;;;;;;;5.25;2.85;;;23.20;98.70;;;;;;5052499;28;20148;-73
2022/09/25 12:48:48;;;;;;;3.03;2.10;;;23.10;98.90;;;;;;5052461;28;20049;-73
2022/09/25 12:51:27;;;;;;;3.65;2.00;;;22.90;98.80;;;;;;5016023;28;20403;-73
2022/09/25 12:54:00;;;;;;;3.55;1.85;;;22.90;98.70;;;;;;5024430;28;20097;-73
2022/09/25 12:56:50;;;;;;;4.65;2.30;;;22.90;98.80;;;;;;5035854;28;20139;-72
2022/09/25 12:59:37;;;;;;;3.92;1.88;;;22.90;98.80;;;;;;5036072;28;20107;-72
2022/09/25 13:02:25;;;;;;;6.32;2.10;;;22.90;98.70;;;;;;5015094;28;20124;-72
2022/09/25 13:04:52;;;;;;;2.88;1.90;;;22.90;99.40;;;;;;5029930;28;20127;-72
2022/09/25 13:07:35;;;;;;;3.45;1.70;;;23.00;99.00;;;;;;5035348;28;20052;-72
2022/09/25 13:10:18;;;;;;;5.68;3.00;;;23.00;99.00;;;;;;5052638;28;20048;-72
2022/09/25 13:12:48;;;;;;;5.05;2.00;;;23.00;98.80;;;;;;5034948;28;20051;-76
2022/09/25 13:15:22;;;;;;;3.67;2.00;;;23.10;98.60;;;;;;5047836;28;20045;-79
2022/09/25 13:17:50;;;;;;;3.42;2.20;;;22.90;98.60;;;;;;4999774;28;20094;-72
2022/09/25 13:20:27;;;;;;;3.95;2.10;;;23.10;98.90;;;;;;5032267;28;20033;-72
2022/09/25 13:23:03;;;;;;;4.28;2.63;;;23.10;98.70;;;;;;5016030;28;20423;-72
2022/09/25 13:25:46;;;;;;;5.15;2.45;;;23.10;98.40;;;;;;4999947;28;20064;-72
2022/09/25 13:28:39;;;;;;;3.42;2.22;;;23.00;98.10;;;;;;5000168;28;20123;-72
2022/09/25 13:31:14;;;;;;;2.65;1.60;;;23.10;97.50;;;;;;5016486;28;20092;-72
2022/09/25 13:33:48;;;;;;;4.88;2.40;;;23.10;97.20;;;;;;5033185;28;20064;-73
2022/09/25 13:36:24;;;;;;;4.60;2.10;;;23.20;97.80;;;;;;5016574;28;20151;-72
2022/09/25 13:42:24;;;;;;;3.22;2.13;;;23.30;97.10;;;;;;5032159;28;20743;-73
2022/09/25 13:45:21;;;;;;;2.50;1.85;;;23.40;96.70;;;;;;5032310;28;20059;-72
2022/09/25 13:48:14;;;;;;;;;;;23.30;96.50;;;;;;5024722;28;20049;-72
2022/09/25 13:50:46;;;;;;;3.78;1.67;;;23.30;96.90;;;;;;5017248;28;19920;-73
2022/09/25 13:53:20;;;;;;;4.72;2.45;;;23.20;96.70;;;;;;5074313;28;20053;-72
2022/09/25 13:55:53;;;;;;;4.35;2.05;;;23.10;96.90;;;;;;5043615;28;20376;-72